sensor_id;sensor_type;location;lat;lon;timestamp;pressure;altitude;pressure_sealevel;temperature
62180;BMP280;48172;53.374;10.722;2022-09-16T00:01:30;100565.03;;;24.82
62180;BMP280;48172;53.374;10.722;2022-09-16T00:03:56;100560.78;;;24.81
62180;BMP280;48172;53.374;10.722;2022-09-16T00:06:26;100562.00;;;24.80
62180;BMP280;48172;53.374;10.722;2022-09-16T00:08:55;100572.94;;;24.80
62180;BMP280;48172;53.374;10.722;2022-09-16T00:11:22;100571.44;;;24.79
62180;BMP280;48172;53.374;10.722;2022-09-16T00:13:48;100568.69;;;24.79
62180;BMP280;48172;53.374;10.722;2022-09-16T00:16:18;100571.44;;;24.79
62180;BMP280;48172;53.374;10.722;2022-09-16T00:18:45;100573.94;;;24.77
62180;BMP280;48172;53.374;10.722;2022-09-16T00:21:12;100572.41;;;24.76
62180;BMP280;48172;53.374;10.722;2022-09-16T00:23:39;100571.19;;;24.77
62180;BMP280;48172;53.374;10.722;2022-09-16T00:26:05;100564.94;;;24.76
62180;BMP280;48172;53.374;10.722;2022-09-16T00:28:32;100571.66;;;24.75
62180;BMP280;48172;53.374;10.722;2022-09-16T00:31:00;100572.91;;;24.74
62180;BMP280;48172;53.374;10.722;2022-09-16T00:33:27;100567.44;;;24.74
62180;BMP280;48172;53.374;10.722;2022-09-16T00:36:09;100571.41;;;24.73
62180;BMP280;48172;53.374;10.722;2022-09-16T00:38:36;100565.19;;;24.73
62180;BMP280;48172;53.374;10.722;2022-09-16T00:41:03;100563.22;;;24.73
62180;BMP280;48172;53.374;10.722;2022-09-16T00:43:55;100557.97;;;24.70
62180;BMP280;48172;53.374;10.722;2022-09-16T00:49:30;100562.22;;;24.71
62180;BMP280;48172;53.374;10.722;2022-09-16T00:52:00;100568.91;;;24.70
62180;BMP280;48172;53.374;10.722;2022-09-16T00:54:28;100571.41;;;24.68
62180;BMP280;48172;53.374;10.722;2022-09-16T00:56:56;100560.47;;;24.68
62180;BMP280;48172;53.374;10.722;2022-09-16T00:59:32;100560.19;;;24.66
62180;BMP280;48172;53.374;10.722;2022-09-16T01:02:05;100560.47;;;24.68
62180;BMP280;48172;53.374;10.722;2022-09-16T01:04:42;100569.13;;;24.66
62180;BMP280;48172;53.374;10.722;2022-09-16T01:07:09;100571.09;;;24.66
62180;BMP280;48172;53.374;10.722;2022-09-16T01:09:36;100578.56;;;24.65
62180;BMP280;48172;53.374;10.722;2022-09-16T01:12:03;100568.13;;;24.64
62180;BMP280;48172;53.374;10.722;2022-09-16T01:14:30;100566.16;;;24.64
62180;BMP280;48172;53.374;10.722;2022-09-16T01:17:25;100573.09;;;24.65
62180;BMP280;48172;53.374;10.722;2022-09-16T01:33:08;100562.16;;;24.60
62180;BMP280;48172;53.374;10.722;2022-09-16T01:38:54;100574.31;;;24.59
62180;BMP280;48172;53.374;10.722;2022-09-16T01:44:10;100575.06;;;24.59
62180;BMP280;48172;53.374;10.722;2022-09-16T01:47:01;100574.31;;;24.59
62180;BMP280;48172;53.374;10.722;2022-09-16T01:49:48;100572.06;;;24.57
62180;BMP280;48172;53.374;10.722;2022-09-16T01:55:17;100571.31;;;24.57
62180;BMP280;48172;53.374;10.722;2022-09-16T01:57:55;100571.31;;;24.57
62180;BMP280;48172;53.374;10.722;2022-09-16T02:00:24;100573.78;;;24.55
62180;BMP280;48172;53.374;10.722;2022-09-16T02:03:04;100569.81;;;24.56
62180;BMP280;48172;53.374;10.722;2022-09-16T02:08:19;100574.25;;;24.53
62180;BMP280;48172;53.374;10.722;2022-09-16T02:10:50;100577.47;;;24.52
62180;BMP280;48172;53.374;10.722;2022-09-16T02:13:22;100574.75;;;24.52
62180;BMP280;48172;53.374;10.722;2022-09-16T02:15:52;100569.28;;;24.52
62180;BMP280;48172;53.374;10.722;2022-09-16T02:18:25;100569.28;;;24.52
62180;BMP280;48172;53.374;10.722;2022-09-16T02:20:55;100565.31;;;24.53
62180;BMP280;48172;53.374;10.722;2022-09-16T02:23:33;100563.06;;;24.51
62180;BMP280;48172;53.374;10.722;2022-09-16T02:26:04;100558.34;;;24.52
62180;BMP280;48172;53.374;10.722;2022-09-16T02:28:35;100563.56;;;24.50
62180;BMP280;48172;53.374;10.722;2022-09-16T02:31:08;100560.84;;;24.50
62180;BMP280;48172;53.374;10.722;2022-09-16T02:33:39;100554.63;;;24.49
62180;BMP280;48172;53.374;10.722;2022-09-16T02:36:12;100559.31;;;24.49
62180;BMP280;48172;53.374;10.722;2022-09-16T02:38:40;100560.53;;;24.48
62180;BMP280;48172;53.374;10.722;2022-09-16T02:41:09;100544.47;;;24.50
62180;BMP280;48172;53.374;10.722;2022-09-16T02:43:40;100550.13;;;24.46
62180;BMP280;48172;53.374;10.722;2022-09-16T02:46:40;100559.78;;;24.47
62180;BMP280;48172;53.374;10.722;2022-09-16T02:49:25;100553.63;;;24.47
62180;BMP280;48172;53.374;10.722;2022-09-16T02:52:13;100541.19;;;24.46
62180;BMP280;48172;53.374;10.722;2022-09-16T02:54:55;100545.16;;;24.44
62180;BMP280;48172;53.374;10.722;2022-09-16T02:57:26;100554.09;;;24.45
62180;BMP280;48172;53.374;10.722;2022-09-16T02:59:52;100537.44;;;24.43
62180;BMP280;48172;53.374;10.722;2022-09-16T03:02:20;100545.16;;;24.44
62180;BMP280;48172;53.374;10.722;2022-09-16T03:04:46;100546.41;;;24.43
62180;BMP280;48172;53.374;10.722;2022-09-16T03:07:14;100544.91;;;24.42
62180;BMP280;48172;53.374;10.722;2022-09-16T03:09:43;100544.16;;;24.42
62180;BMP280;48172;53.374;10.722;2022-09-16T03:26:15;100545.09;;;24.39
62180;BMP280;48172;53.374;10.722;2022-09-16T03:28:58;100545.09;;;24.39
62180;BMP280;48172;53.374;10.722;2022-09-16T03:31:37;100542.88;;;24.37
62180;BMP280;48172;53.374;10.722;2022-09-16T03:36:40;100544.13;;;24.36
62180;BMP280;48172;53.374;10.722;2022-09-16T03:39:09;100542.13;;;24.37
62180;BMP280;48172;53.374;10.722;2022-09-16T03:41:36;100533.94;;;24.37
62180;BMP280;48172;53.374;10.722;2022-09-16T03:44:03;100536.66;;;24.37
62180;BMP280;48172;53.374;10.722;2022-09-16T03:46:30;100542.88;;;24.37
62180;BMP280;48172;53.374;10.722;2022-09-16T03:48:57;100539.91;;;24.35
62180;BMP280;48172;53.374;10.722;2022-09-16T03:51:24;100536.66;;;24.37
62180;BMP280;48172;53.374;10.722;2022-09-16T03:53:51;100531.69;;;24.35
62180;BMP280;48172;53.374;10.722;2022-09-16T03:56:18;100533.69;;;24.35
62180;BMP280;48172;53.374;10.722;2022-09-16T03:58:46;100526.25;;;24.35
62180;BMP280;48172;53.374;10.722;2022-09-16T04:01:13;100535.19;;;24.36
62180;BMP280;48172;53.374;10.722;2022-09-16T04:03:40;100535.63;;;24.34
62180;BMP280;48172;53.374;10.722;2022-09-16T04:06:07;100533.38;;;24.33
62180;BMP280;48172;53.374;10.722;2022-09-16T04:08:34;100524.47;;;24.32
62180;BMP280;48172;53.374;10.722;2022-09-16T04:11:03;100519.03;;;24.32
62180;BMP280;48172;53.374;10.722;2022-09-16T04:13:34;100527.22;;;24.32
62180;BMP280;48172;53.374;10.722;2022-09-16T04:16:04;100528.22;;;24.35
62180;BMP280;48172;53.374;10.722;2022-09-16T04:18:31;100525.72;;;24.31
62180;BMP280;48172;53.374;10.722;2022-09-16T04:21:00;100518.75;;;24.30
62180;BMP280;48172;53.374;10.722;2022-09-16T04:23:28;100525.41;;;24.29
62180;BMP280;48172;53.374;10.722;2022-09-16T04:25:57;100524.97;;;24.31
62180;BMP280;48172;53.374;10.722;2022-09-16T04:28:24;100516.78;;;24.31
62180;BMP280;48172;53.374;10.722;2022-09-16T04:30:51;100513.28;;;24.30
62180;BMP280;48172;53.374;10.722;2022-09-16T04:33:18;100509.03;;;24.29
62180;BMP280;48172;53.374;10.722;2022-09-16T04:35:45;100511.03;;;24.29
62180;BMP280;48172;53.374;10.722;2022-09-16T04:38:11;100523.19;;;24.28
62180;BMP280;48172;53.374;10.722;2022-09-16T04:40:37;100510.78;;;24.27
62180;BMP280;48172;53.374;10.722;2022-09-16T04:43:05;100511.53;;;24.27
62180;BMP280;48172;53.374;10.722;2022-09-16T04:45:31;100510.78;;;24.27
62180;BMP280;48172;53.374;10.722;2022-09-16T04:47:58;100518.97;;;24.27
62180;BMP280;48172;53.374;10.722;2022-09-16T04:50:25;100513.03;;;24.28
62180;BMP280;48172;53.374;10.722;2022-09-16T04:52:51;100510.03;;;24.26
62180;BMP280;48172;53.374;10.722;2022-09-16T04:55:17;100514.25;;;24.27
62180;BMP280;48172;53.374;10.722;2022-09-16T04:57:44;100511.53;;;24.27
62180;BMP280;48172;53.374;10.722;2022-09-16T05:00:11;100507.78;;;24.25
62180;BMP280;48172;53.374;10.722;2022-09-16T05:02:37;100508.25;;;24.18
62180;BMP280;48172;53.374;10.722;2022-09-16T05:05:04;100518.88;;;24.16
62180;BMP280;48172;53.374;10.722;2022-09-16T05:07:31;100516.66;;;24.14
62180;BMP280;48172;53.374;10.722;2022-09-16T05:09:57;100518.41;;;24.17
62180;BMP280;48172;53.374;10.722;2022-09-16T05:12:24;100500.06;;;24.18
62180;BMP280;48172;53.374;10.722;2022-09-16T05:14:50;100506.25;;;24.18
62180;BMP280;48172;53.374;10.722;2022-09-16T05:17:17;100495.34;;;24.18
62180;BMP280;48172;53.374;10.722;2022-09-16T05:20:03;100494.09;;;24.19
62180;BMP280;48172;53.374;10.722;2022-09-16T05:22:30;100498.78;;;24.19
62180;BMP280;48172;53.374;10.722;2022-09-16T05:24:57;100493.59;;;24.21
62180;BMP280;48172;53.374;10.722;2022-09-16T05:27:23;100495.84;;;24.22
62180;BMP280;48172;53.374;10.722;2022-09-16T05:29:53;100489.16;;;24.23
62180;BMP280;48172;53.374;10.722;2022-09-16T05:32:19;100492.16;;;24.25
62180;BMP280;48172;53.374;10.722;2022-09-16T05:34:46;100487.47;;;24.26
62180;BMP280;48172;53.374;10.722;2022-09-16T05:37:12;100495.16;;;24.27
62180;BMP280;48172;53.374;10.722;2022-09-16T05:39:39;100491.94;;;24.29
62180;BMP280;48172;53.374;10.722;2022-09-16T05:42:05;100488.94;;;24.27
62180;BMP280;48172;53.374;10.722;2022-09-16T05:44:32;100497.13;;;24.27
62180;BMP280;48172;53.374;10.722;2022-09-16T05:46:58;100503.56;;;24.29
62180;BMP280;48172;53.374;10.722;2022-09-16T05:49:25;100506.81;;;24.28
62180;BMP280;48172;53.374;10.722;2022-09-16T05:51:52;100510.56;;;24.30
62180;BMP280;48172;53.374;10.722;2022-09-16T05:54:19;100512.06;;;24.31
62180;BMP280;48172;53.374;10.722;2022-09-16T05:56:46;100522.97;;;24.31
62180;BMP280;48172;53.374;10.722;2022-09-16T05:59:14;100521.25;;;24.34
62180;BMP280;48172;53.374;10.722;2022-09-16T06:01:41;100519.25;;;24.34
62180;BMP280;48172;53.374;10.722;2022-09-16T06:04:10;100530.19;;;24.34
62180;BMP280;48172;53.374;10.722;2022-09-16T06:06:42;100523.50;;;24.35
62180;BMP280;48172;53.374;10.722;2022-09-16T06:09:10;100525.72;;;24.37
62180;BMP280;48172;53.374;10.722;2022-09-16T06:11:41;100523.00;;;24.37
62180;BMP280;48172;53.374;10.722;2022-09-16T06:14:09;100523.75;;;24.37
62180;BMP280;48172;53.374;10.722;2022-09-16T06:16:36;100523.50;;;24.35
62180;BMP280;48172;53.374;10.722;2022-09-16T06:19:05;100514.09;;;24.36
62180;BMP280;48172;53.374;10.722;2022-09-16T06:21:32;100508.13;;;24.38
62180;BMP280;48172;53.374;10.722;2022-09-16T06:23:59;100497.94;;;24.38
62180;BMP280;48172;53.374;10.722;2022-09-16T06:26:26;100504.41;;;24.41
62180;BMP280;48172;53.374;10.722;2022-09-16T06:28:52;100508.38;;;24.40
62180;BMP280;48172;53.374;10.722;2022-09-16T06:31:22;100497.25;;;24.43
62180;BMP280;48172;53.374;10.722;2022-09-16T06:33:48;100502.72;;;24.43
62180;BMP280;48172;53.374;10.722;2022-09-16T06:36:18;100504.19;;;24.44
62180;BMP280;48172;53.374;10.722;2022-09-16T06:38:45;100490.28;;;24.42
62180;BMP280;48172;53.374;10.722;2022-09-16T06:41:13;100487.03;;;24.44
62180;BMP280;48172;53.374;10.722;2022-09-16T06:43:41;100487.03;;;24.44
62180;BMP280;48172;53.374;10.722;2022-09-16T06:46:12;100495.22;;;24.44
62180;BMP280;48172;53.374;10.722;2022-09-16T06:48:46;100488.56;;;24.45
62180;BMP280;48172;53.374;10.722;2022-09-16T06:51:17;100484.84;;;24.48
62180;BMP280;48172;53.374;10.722;2022-09-16T06:53:45;100487.34;;;24.52
62180;BMP280;48172;53.374;10.722;2022-09-16T06:56:13;100483.13;;;24.51
62180;BMP280;48172;53.374;10.722;2022-09-16T06:58:41;100484.13;;;24.53
62180;BMP280;48172;53.374;10.722;2022-09-16T07:01:13;100479.69;;;24.56
62180;BMP280;48172;53.374;10.722;2022-09-16T07:03:43;100475.47;;;24.55
62180;BMP280;48172;53.374;10.722;2022-09-16T07:06:10;100473.00;;;24.57
62180;BMP280;48172;53.374;10.722;2022-09-16T07:08:38;100481.94;;;24.57
62180;BMP280;48172;53.374;10.722;2022-09-16T07:11:18;100480.22;;;24.60
62180;BMP280;48172;53.374;10.722;2022-09-16T07:13:46;100479.69;;;24.61
62180;BMP280;48172;53.374;10.722;2022-09-16T07:16:15;100466.34;;;24.63
62180;BMP280;48172;53.374;10.722;2022-09-16T07:18:42;100466.06;;;24.67
62180;BMP280;48172;53.374;10.722;2022-09-16T07:21:15;100474.78;;;24.71
62180;BMP280;48172;53.374;10.722;2022-09-16T07:23:43;100470.34;;;24.73
62180;BMP280;48172;53.374;10.722;2022-09-16T07:26:14;100475.31;;;24.75
62180;BMP280;48172;53.374;10.722;2022-09-16T07:28:42;100472.38;;;24.78
62180;BMP280;48172;53.374;10.722;2022-09-16T07:31:11;100460.91;;;24.80
62180;BMP280;48172;53.374;10.722;2022-09-16T07:33:39;100474.56;;;24.80
62180;BMP280;48172;53.374;10.722;2022-09-16T07:36:08;100476.78;;;24.76
62180;BMP280;48172;53.374;10.722;2022-09-16T07:38:35;100477.31;;;24.74
62180;BMP280;48172;53.374;10.722;2022-09-16T07:41:08;100474.06;;;24.76
62180;BMP280;48172;53.374;10.722;2022-09-16T07:43:38;100476.56;;;24.79
62180;BMP280;48172;53.374;10.722;2022-09-16T07:46:06;100478.06;;;24.86
62180;BMP280;48172;53.374;10.722;2022-09-16T07:48:34;100479.34;;;24.91
62180;BMP280;48172;53.374;10.722;2022-09-16T07:51:06;100479.09;;;24.94
62180;BMP280;48172;53.374;10.722;2022-09-16T07:53:34;100485.31;;;25.00
62180;BMP280;48172;53.374;10.722;2022-09-16T07:56:06;100479.63;;;25.04
62180;BMP280;48172;53.374;10.722;2022-09-16T07:58:32;100481.91;;;25.05
62180;BMP280;48172;53.374;10.722;2022-09-16T08:00:59;100487.84;;;25.09
62180;BMP280;48172;53.374;10.722;2022-09-16T08:03:31;100481.66;;;25.14
62180;BMP280;48172;53.374;10.722;2022-09-16T08:06:00;100482.16;;;25.19
62180;BMP280;48172;53.374;10.722;2022-09-16T08:08:27;100471.47;;;25.21
62180;BMP280;48172;53.374;10.722;2022-09-16T08:10:54;100483.41;;;25.23
62180;BMP280;48172;53.374;10.722;2022-09-16T08:13:22;100474.97;;;25.27
62180;BMP280;48172;53.374;10.722;2022-09-16T08:15:49;100477.50;;;25.30
62180;BMP280;48172;53.374;10.722;2022-09-16T08:18:15;100471.78;;;25.34
62180;BMP280;48172;53.374;10.722;2022-09-16T08:20:42;100472.00;;;25.36
62180;BMP280;48172;53.374;10.722;2022-09-16T08:23:08;100477.75;;;25.38
62180;BMP280;48172;53.374;10.722;2022-09-16T08:25:35;100472.75;;;25.42
62180;BMP280;48172;53.374;10.722;2022-09-16T08:28:02;100473.50;;;25.42
62180;BMP280;48172;53.374;10.722;2022-09-16T08:30:29;100467.78;;;25.46
62180;BMP280;48172;53.374;10.722;2022-09-16T08:32:58;100473.78;;;25.50
62180;BMP280;48172;53.374;10.722;2022-09-16T08:35:25;100481.22;;;25.55
62180;BMP280;48172;53.374;10.722;2022-09-16T08:37:53;100476.03;;;25.57
62180;BMP280;48172;53.374;10.722;2022-09-16T08:40:23;100473.78;;;25.61
62180;BMP280;48172;53.374;10.722;2022-09-16T08:43:17;100480.25;;;25.64
62180;BMP280;48172;53.374;10.722;2022-09-16T08:45:56;100470.31;;;25.66
62180;BMP280;48172;53.374;10.722;2022-09-16T08:50:59;100475.03;;;25.71
62180;BMP280;48172;53.374;10.722;2022-09-16T08:53:38;100474.75;;;25.75
62180;BMP280;48172;53.374;10.722;2022-09-16T08:56:14;100485.47;;;25.78
62180;BMP280;48172;53.374;10.722;2022-09-16T08:58:46;100478.28;;;25.81
62180;BMP280;48172;53.374;10.722;2022-09-16T09:04:01;100480.00;;;25.84
62180;BMP280;48172;53.374;10.722;2022-09-16T09:07:10;100475.75;;;25.88
62180;BMP280;48172;53.374;10.722;2022-09-16T09:09:53;100482.97;;;25.92
62180;BMP280;48172;53.374;10.722;2022-09-16T09:18:07;100472.28;;;25.99
62180;BMP280;48172;53.374;10.722;2022-09-16T09:23:24;100484.97;;;26.08
62180;BMP280;48172;53.374;10.722;2022-09-16T09:26:06;100481.22;;;26.11
62180;BMP280;48172;53.374;10.722;2022-09-16T09:37:11;100477.22;;;26.23
62180;BMP280;48172;53.374;10.722;2022-09-16T09:42:20;100465.97;;;26.38
62180;BMP280;48172;53.374;10.722;2022-09-16T09:44:59;100471.19;;;26.47
62180;BMP280;48172;53.374;10.722;2022-09-16T09:47:34;100465.22;;;26.43
62180;BMP280;48172;53.374;10.722;2022-09-16T09:50:25;100465.44;;;26.45
62180;BMP280;48172;53.374;10.722;2022-09-16T09:53:00;100476.13;;;26.48
62180;BMP280;48172;53.374;10.722;2022-09-16T09:55:32;100453.72;;;26.50
62180;BMP280;48172;53.374;10.722;2022-09-16T10:00:43;100446.72;;;26.54
62180;BMP280;48172;53.374;10.722;2022-09-16T10:03:11;100438.03;;;26.56
62180;BMP280;48172;53.374;10.722;2022-09-16T10:05:39;100449.72;;;26.56
62180;BMP280;48172;53.374;10.722;2022-09-16T10:08:24;100446.00;;;26.59
62180;BMP280;48172;53.374;10.722;2022-09-16T10:10:55;100448.94;;;26.61
62180;BMP280;48172;53.374;10.722;2022-09-16T10:13:24;100450.94;;;26.61
62180;BMP280;48172;53.374;10.722;2022-09-16T10:16:06;100439.97;;;26.61
62180;BMP280;48172;53.374;10.722;2022-09-16T10:18:33;100438.22;;;26.64
62180;BMP280;48172;53.374;10.722;2022-09-16T10:21:03;100440.47;;;26.65
62180;BMP280;48172;53.374;10.722;2022-09-16T10:23:31;100458.41;;;26.66
62180;BMP280;48172;53.374;10.722;2022-09-16T10:26:18;100473.34;;;26.65
62180;BMP280;48172;53.374;10.722;2022-09-16T10:29:15;100471.13;;;26.64
62180;BMP280;48172;53.374;10.722;2022-09-16T10:31:39;100469.38;;;26.60
62180;BMP280;48172;53.374;10.722;2022-09-16T10:34:22;100465.16;;;26.59
62180;BMP280;48172;53.374;10.722;2022-09-16T10:40:04;100460.69;;;26.56
62180;BMP280;48172;53.374;10.722;2022-09-16T10:42:32;100459.41;;;26.57
62180;BMP280;48172;53.374;10.722;2022-09-16T10:45:13;100454.94;;;26.60
62180;BMP280;48172;53.374;10.722;2022-09-16T10:47:48;100452.69;;;26.64
62180;BMP280;48172;53.374;10.722;2022-09-16T10:50:17;100451.66;;;26.67
62180;BMP280;48172;53.374;10.722;2022-09-16T10:52:46;100443.16;;;26.71
62180;BMP280;48172;53.374;10.722;2022-09-16T10:55:31;100430.47;;;26.73
62180;BMP280;48172;53.374;10.722;2022-09-16T10:58:17;100439.41;;;26.79
62180;BMP280;48172;53.374;10.722;2022-09-16T11:01:14;100440.63;;;26.84
62180;BMP280;48172;53.374;10.722;2022-09-16T11:07:15;100420.66;;;26.89
62180;BMP280;48172;53.374;10.722;2022-09-16T11:10:02;100415.94;;;26.89
62180;BMP280;48172;53.374;10.722;2022-09-16T11:18:36;100425.72;;;27.15
62180;BMP280;48172;53.374;10.722;2022-09-16T11:30:02;100426.34;;;27.56
62180;BMP280;48172;53.374;10.722;2022-09-16T11:38:09;100420.50;;;27.71
62180;BMP280;48172;53.374;10.722;2022-09-16T11:43:38;100423.41;;;27.79
62180;BMP280;48172;53.374;10.722;2022-09-16T11:46:21;100418.94;;;27.81
62180;BMP280;48172;53.374;10.722;2022-09-16T11:51:40;100406.81;;;27.90
62180;BMP280;48172;53.374;10.722;2022-09-16T11:54:21;100407.81;;;27.92
62180;BMP280;48172;53.374;10.722;2022-09-16T11:56:55;100407.28;;;27.94
62180;BMP280;48172;53.374;10.722;2022-09-16T11:59:31;100402.78;;;27.96
62180;BMP280;48172;53.374;10.722;2022-09-16T12:02:06;100402.47;;;28.00
62180;BMP280;48172;53.374;10.722;2022-09-16T12:04:50;100394.47;;;28.02
62180;BMP280;48172;53.374;10.722;2022-09-16T12:07:32;100397.41;;;28.04
62180;BMP280;48172;53.374;10.722;2022-09-16T12:10:19;100395.03;;;27.95
62180;BMP280;48172;53.374;10.722;2022-09-16T12:12:55;100384.50;;;27.99
62180;BMP280;48172;53.374;10.722;2022-09-16T12:15:28;100390.44;;;28.03
62180;BMP280;48172;53.374;10.722;2022-09-16T12:18:11;100382.94;;;28.03
62180;BMP280;48172;53.374;10.722;2022-09-16T12:20:47;100377.25;;;28.01
62180;BMP280;48172;53.374;10.722;2022-09-16T12:23:21;100380.06;;;27.96
62180;BMP280;48172;53.374;10.722;2022-09-16T12:26:16;100362.03;;;28.00
62180;BMP280;48172;53.374;10.722;2022-09-16T12:28:49;100368.94;;;28.07
62180;BMP280;48172;53.374;10.722;2022-09-16T12:31:23;100359.94;;;28.06
62180;BMP280;48172;53.374;10.722;2022-09-16T12:33:55;100361.97;;;28.06
62180;BMP280;48172;53.374;10.722;2022-09-16T12:36:26;100383.03;;;27.98
62180;BMP280;48172;53.374;10.722;2022-09-16T12:38:57;100397.03;;;27.94
62180;BMP280;48172;53.374;10.722;2022-09-16T12:55:59;100378.47;;;27.82
62180;BMP280;48172;53.374;10.722;2022-09-16T13:01:25;100365.25;;;27.80
62180;BMP280;48172;53.374;10.722;2022-09-16T13:04:03;100366.00;;;27.81
62180;BMP280;48172;53.374;10.722;2022-09-16T13:06:36;100372.25;;;27.81
62180;BMP280;48172;53.374;10.722;2022-09-16T13:09:20;100374.75;;;27.79
62180;BMP280;48172;53.374;10.722;2022-09-16T13:11:57;100378.47;;;27.82
62180;BMP280;48172;53.374;10.722;2022-09-16T13:14:48;100364.75;;;27.82
62180;BMP280;48172;53.374;10.722;2022-09-16T13:17:26;100364.03;;;27.81
62180;BMP280;48172;53.374;10.722;2022-09-16T13:19:53;100348.28;;;27.82
62180;BMP280;48172;53.374;10.722;2022-09-16T13:26:05;100340.56;;;27.80
62180;BMP280;48172;53.374;10.722;2022-09-16T13:30:50;100334.31;;;27.80
62180;BMP280;48172;53.374;10.722;2022-09-16T13:33:20;100326.84;;;27.80
62180;BMP280;48172;53.374;10.722;2022-09-16T13:38:45;100325.34;;;27.79
62180;BMP280;48172;53.374;10.722;2022-09-16T13:41:13;100326.09;;;27.80
62180;BMP280;48172;53.374;10.722;2022-09-16T13:46:24;100317.09;;;27.79
62180;BMP280;48172;53.374;10.722;2022-09-16T13:51:24;100309.41;;;27.78
62180;BMP280;48172;53.374;10.722;2022-09-16T13:53:52;100309.16;;;27.76
62180;BMP280;48172;53.374;10.722;2022-09-16T14:02:14;100307.75;;;27.69
62180;BMP280;48172;53.374;10.722;2022-09-16T14:09:59;100323.31;;;27.61
62180;BMP280;48172;53.374;10.722;2022-09-16T14:12:30;100308.09;;;27.60
62180;BMP280;48172;53.374;10.722;2022-09-16T14:15:00;100296.91;;;27.58
62180;BMP280;48172;53.374;10.722;2022-09-16T14:17:48;100302.16;;;27.56
62180;BMP280;48172;53.374;10.722;2022-09-16T14:20:19;100304.91;;;27.56
62180;BMP280;48172;53.374;10.722;2022-09-16T14:22:46;100308.91;;;27.55
62180;BMP280;48172;53.374;10.722;2022-09-16T14:25:28;100304.44;;;27.52
62180;BMP280;48172;53.374;10.722;2022-09-16T14:28:08;100315.22;;;27.50
62180;BMP280;48172;53.374;10.722;2022-09-16T14:30:35;100296.28;;;27.46
62180;BMP280;48172;53.374;10.722;2022-09-16T14:33:01;100307.03;;;27.44
62180;BMP280;48172;53.374;10.722;2022-09-16T14:35:28;100308.28;;;27.43
62180;BMP280;48172;53.374;10.722;2022-09-16T14:37:58;100303.84;;;27.40
62180;BMP280;48172;53.374;10.722;2022-09-16T14:40:27;100318.56;;;27.37
62180;BMP280;48172;53.374;10.722;2022-09-16T14:42:58;100312.84;;;27.35
62180;BMP280;48172;53.374;10.722;2022-09-16T14:45:28;100327.59;;;27.32
62180;BMP280;48172;53.374;10.722;2022-09-16T14:47:57;100322.91;;;27.27
62180;BMP280;48172;53.374;10.722;2022-09-16T14:50:36;100320.94;;;27.22
62180;BMP280;48172;53.374;10.722;2022-09-16T14:53:05;100333.94;;;27.21
62180;BMP280;48172;53.374;10.722;2022-09-16T14:55:33;100318.03;;;27.14
62180;BMP280;48172;53.374;10.722;2022-09-16T14:58:02;100321.81;;;27.11
62180;BMP280;48172;53.374;10.722;2022-09-16T15:00:34;100321.34;;;27.07
62180;BMP280;48172;53.374;10.722;2022-09-16T15:03:12;100317.88;;;27.01
62180;BMP280;48172;53.374;10.722;2022-09-16T15:05:42;100321.66;;;26.98
62180;BMP280;48172;53.374;10.722;2022-09-16T15:08:19;100323.69;;;26.92
62180;BMP280;48172;53.374;10.722;2022-09-16T15:10:50;100305.00;;;26.90
62180;BMP280;48172;53.374;10.722;2022-09-16T15:13:21;100294.31;;;26.87
62180;BMP280;48172;53.374;10.722;2022-09-16T15:18:28;100289.16;;;26.78
62180;BMP280;48172;53.374;10.722;2022-09-16T15:21:15;100289.97;;;26.73
62180;BMP280;48172;53.374;10.722;2022-09-16T15:23:49;100288.00;;;26.68
62180;BMP280;48172;53.374;10.722;2022-09-16T15:26:25;100268.38;;;26.64
62180;BMP280;48172;53.374;10.722;2022-09-16T15:29:02;100265.38;;;26.61
62180;BMP280;48172;53.374;10.722;2022-09-16T15:34:03;100252.00;;;26.52
62180;BMP280;48172;53.374;10.722;2022-09-16T15:38:58;100234.59;;;26.44
62180;BMP280;48172;53.374;10.722;2022-09-16T15:41:24;100232.91;;;26.41
62180;BMP280;48172;53.374;10.722;2022-09-16T15:43:51;100229.94;;;26.39
62180;BMP280;48172;53.374;10.722;2022-09-16T15:46:20;100216.75;;;26.38
62180;BMP280;48172;53.374;10.722;2022-09-16T15:48:51;100215.75;;;26.35
62180;BMP280;48172;53.374;10.722;2022-09-16T15:51:43;100209.81;;;26.31
62180;BMP280;48172;53.374;10.722;2022-09-16T15:59:32;100189.94;;;26.25
62180;BMP280;48172;53.374;10.722;2022-09-16T16:02:03;100178.03;;;26.22
62180;BMP280;48172;53.374;10.722;2022-09-16T16:04:32;100166.34;;;26.22
62180;BMP280;48172;53.374;10.722;2022-09-16T16:07:02;100173.56;;;26.19
62180;BMP280;48172;53.374;10.722;2022-09-16T16:09:37;100165.84;;;26.18
62180;BMP280;48172;53.374;10.722;2022-09-16T16:14:37;100140.03;;;26.13
62180;BMP280;48172;53.374;10.722;2022-09-16T16:17:10;100147.97;;;26.11
62180;BMP280;48172;53.374;10.722;2022-09-16T16:19:44;100127.34;;;26.10
62180;BMP280;48172;53.374;10.722;2022-09-16T16:22:11;100131.34;;;26.09
62180;BMP280;48172;53.374;10.722;2022-09-16T16:24:39;100120.88;;;26.08
62180;BMP280;48172;53.374;10.722;2022-09-16T16:27:06;100092.53;;;26.05
62180;BMP280;48172;53.374;10.722;2022-09-16T16:29:34;100072.63;;;26.05
62180;BMP280;48172;53.374;10.722;2022-09-16T16:32:05;100082.13;;;26.04
62180;BMP280;48172;53.374;10.722;2022-09-16T16:34:33;100091.34;;;26.01
62180;BMP280;48172;53.374;10.722;2022-09-16T16:37:00;100081.84;;;26.02
62180;BMP280;48172;53.374;10.722;2022-09-16T16:39:27;100071.94;;;25.99
62180;BMP280;48172;53.374;10.722;2022-09-16T16:41:53;100064.25;;;25.97
62180;BMP280;48172;53.374;10.722;2022-09-16T16:44:21;100078.66;;;25.98
62180;BMP280;48172;53.374;10.722;2022-09-16T16:46:50;100066.00;;;25.95
62180;BMP280;48172;53.374;10.722;2022-09-16T16:49:17;100078.19;;;25.94
62180;BMP280;48172;53.374;10.722;2022-09-16T16:51:44;100086.91;;;25.92